createdAt,value
2022-10-19T00:01:09.719Z,9
2022-10-19T00:02:53.425Z,9
2022-10-19T00:04:37.173Z,9
2022-10-19T00:06:20.824Z,9
2022-10-19T00:08:04.524Z,2
2022-10-19T00:09:48.225Z,1
2022-10-19T00:11:31.928Z,1
2022-10-19T00:13:15.666Z,1
2022-10-19T00:14:59.355Z,2
2022-10-19T00:16:43.070Z,1
2022-10-19T00:18:26.743Z,1
2022-10-19T00:20:10.440Z,1
2022-10-19T00:21:54.156Z,1
2022-10-19T00:23:37.852Z,0
2022-10-19T00:25:21.552Z,1
2022-10-19T00:27:05.247Z,1
2022-10-19T00:28:48.951Z,1
2022-10-19T00:30:32.660Z,1
2022-10-19T00:32:16.351Z,1
2022-10-19T00:34:00.058Z,2
2022-10-19T00:35:43.757Z,1
2022-10-19T00:37:27.482Z,1
2022-10-19T00:39:11.175Z,1
2022-10-19T00:40:54.896Z,0
2022-10-19T00:42:38.573Z,1
2022-10-19T00:44:22.276Z,1
2022-10-19T00:46:05.979Z,1
2022-10-19T00:47:49.689Z,1
2022-10-19T00:49:33.380Z,1
2022-10-19T00:51:17.085Z,2
2022-10-19T00:53:00.786Z,1
2022-10-19T00:54:44.486Z,1
2022-10-19T00:56:28.190Z,1
2022-10-19T00:58:11.954Z,1
2022-10-19T00:59:55.603Z,1
2022-10-19T01:01:39.308Z,1
2022-10-19T01:03:23.005Z,2
2022-10-19T01:05:06.742Z,1
2022-10-19T01:06:50.416Z,1
2022-10-19T01:08:34.107Z,1
2022-10-19T01:10:17.813Z,0
2022-10-19T01:12:01.513Z,1
2022-10-19T01:13:45.216Z,1
2022-10-19T01:15:28.915Z,1
2022-10-19T01:17:12.617Z,1
2022-10-19T01:18:56.338Z,1
2022-10-19T01:20:40.034Z,1
2022-10-19T01:22:23.740Z,1
2022-10-19T01:24:07.438Z,1
2022-10-19T01:25:51.139Z,1
2022-10-19T01:27:34.836Z,1
2022-10-19T01:29:18.537Z,1
2022-10-19T01:31:02.254Z,1
2022-10-19T01:32:45.950Z,1
2022-10-19T01:34:29.680Z,1
2022-10-19T01:36:13.349Z,1
2022-10-19T01:37:57.055Z,1
2022-10-19T01:39:40.746Z,1
2022-10-19T01:41:24.462Z,1
2022-10-19T01:43:08.163Z,2
2022-10-19T01:44:51.858Z,0
2022-10-19T01:46:35.571Z,1
2022-10-19T01:48:19.275Z,1
2022-10-19T01:50:02.970Z,1
2022-10-19T01:51:46.767Z,1
2022-10-19T01:53:30.369Z,1
2022-10-19T01:55:14.075Z,1
2022-10-19T01:56:57.772Z,1
2022-10-19T01:58:41.480Z,2
2022-10-19T02:00:25.180Z,2
2022-10-19T02:02:08.885Z,1
2022-10-19T02:03:52.587Z,1
2022-10-19T02:05:36.288Z,0
2022-10-19T02:07:19.992Z,1
2022-10-19T02:09:03.694Z,1
2022-10-19T02:10:47.403Z,2
2022-10-19T02:12:31.115Z,2
2022-10-19T02:14:14.811Z,1
2022-10-19T02:15:58.514Z,1
2022-10-19T02:17:42.214Z,1
2022-10-19T02:19:25.917Z,1
2022-10-19T02:21:09.616Z,1
2022-10-19T02:22:53.323Z,1
2022-10-19T02:24:37.026Z,1
2022-10-19T02:26:20.729Z,1
2022-10-19T02:28:04.425Z,1
2022-10-19T02:29:48.137Z,1
2022-10-19T02:31:31.832Z,2
2022-10-19T02:33:15.532Z,1
2022-10-19T02:34:59.239Z,1
2022-10-19T02:36:42.936Z,2
2022-10-19T02:38:26.643Z,1
2022-10-19T02:40:10.345Z,1
2022-10-19T02:41:54.039Z,1
2022-10-19T02:43:37.746Z,1
2022-10-19T02:45:21.457Z,2
2022-10-19T02:47:05.150Z,2
2022-10-19T02:48:48.858Z,1
2022-10-19T02:50:32.554Z,1
2022-10-19T02:52:16.276Z,1
2022-10-19T02:53:59.967Z,1
2022-10-19T02:55:43.695Z,2
2022-10-19T02:57:27.368Z,1
2022-10-19T02:59:11.062Z,2
2022-10-19T03:00:54.823Z,0
2022-10-19T03:02:38.488Z,1
2022-10-19T03:04:22.173Z,2
2022-10-19T03:06:05.890Z,1
2022-10-19T03:07:49.586Z,1
2022-10-19T03:09:33.285Z,0
2022-10-19T03:11:16.990Z,1
2022-10-19T03:13:00.686Z,1
2022-10-19T03:14:44.407Z,1
2022-10-19T03:16:28.097Z,1
2022-10-19T03:18:11.797Z,1
2022-10-19T03:19:55.501Z,2
2022-10-19T03:21:39.205Z,1
2022-10-19T03:23:22.979Z,1
2022-10-19T03:25:06.634Z,1
2022-10-19T03:26:50.307Z,1
2022-10-19T03:28:34.016Z,1
2022-10-19T03:30:17.740Z,1
2022-10-19T03:32:01.413Z,1
2022-10-19T03:35:28.820Z,1
2022-10-19T03:37:12.535Z,1
2022-10-19T03:38:56.237Z,1
2022-10-19T03:40:39.971Z,2
2022-10-19T03:42:23.634Z,1
2022-10-19T03:44:07.341Z,1
2022-10-19T03:45:51.051Z,1
2022-10-19T03:47:34.745Z,1
2022-10-19T03:49:18.446Z,1
2022-10-19T03:51:02.154Z,0
2022-10-19T03:52:45.867Z,1
2022-10-19T03:54:29.552Z,1
2022-10-19T03:56:13.259Z,1
2022-10-19T03:57:56.954Z,1
2022-10-19T03:59:40.667Z,1
2022-10-19T04:01:24.367Z,1
2022-10-19T04:03:08.069Z,1
2022-10-19T04:04:51.769Z,2
2022-10-19T04:06:35.468Z,1
2022-10-19T04:08:19.172Z,1
2022-10-19T04:10:02.877Z,1
2022-10-19T04:11:46.571Z,1
2022-10-19T04:13:30.276Z,2
2022-10-19T04:15:13.994Z,2
2022-10-19T04:16:57.679Z,1
2022-10-19T04:18:41.413Z,2
2022-10-19T04:20:25.095Z,1
2022-10-19T04:22:08.788Z,1
2022-10-19T04:23:52.496Z,0
2022-10-19T04:25:36.195Z,1
2022-10-19T04:27:19.907Z,1
2022-10-19T04:29:03.601Z,1
2022-10-19T04:30:47.299Z,1
2022-10-19T04:32:31.002Z,1
2022-10-19T04:34:14.709Z,1
2022-10-19T04:35:58.412Z,1
2022-10-19T04:37:42.112Z,1
2022-10-19T04:39:25.823Z,2
2022-10-19T04:41:09.515Z,1
2022-10-19T04:42:53.224Z,0
2022-10-19T04:44:36.911Z,1
2022-10-19T04:46:20.624Z,1
2022-10-19T04:48:04.317Z,1
2022-10-19T04:49:48.030Z,1
2022-10-19T04:51:31.735Z,1
2022-10-19T04:53:15.423Z,1
2022-10-19T04:54:59.136Z,1
2022-10-19T04:56:42.876Z,2
2022-10-19T04:58:26.539Z,1
2022-10-19T05:00:10.242Z,1
2022-10-19T05:01:53.960Z,1
2022-10-19T05:03:37.686Z,1
2022-10-19T05:05:21.350Z,1
2022-10-19T05:07:05.041Z,1
2022-10-19T05:08:48.751Z,1
2022-10-19T05:10:32.449Z,2
2022-10-19T05:12:16.183Z,1
2022-10-19T05:13:59.858Z,1
2022-10-19T05:15:43.557Z,1
2022-10-19T05:17:27.269Z,1
2022-10-19T05:19:10.967Z,1
2022-10-19T05:20:54.667Z,1
2022-10-19T05:22:38.407Z,1
2022-10-19T05:24:22.067Z,9
2022-10-19T05:26:05.785Z,9
2022-10-19T05:27:49.480Z,9
2022-10-19T05:29:33.177Z,10
2022-10-19T05:31:16.888Z,10
2022-10-19T05:33:00.586Z,12
2022-10-19T05:34:44.284Z,12
2022-10-19T05:36:27.998Z,12
2022-10-19T05:38:11.696Z,13
2022-10-19T05:39:55.388Z,13
2022-10-19T05:41:39.097Z,14
2022-10-19T05:43:22.792Z,15
2022-10-19T05:45:06.544Z,17
2022-10-19T05:46:50.227Z,18
2022-10-19T05:48:33.911Z,19
2022-10-19T05:50:17.614Z,20
2022-10-19T05:52:01.339Z,22
2022-10-19T05:53:45.016Z,24
2022-10-19T05:55:28.718Z,26
2022-10-19T05:57:12.428Z,21
2022-10-19T05:58:56.158Z,24
2022-10-19T06:00:39.820Z,28
2022-10-19T06:02:23.526Z,35
2022-10-19T06:04:07.281Z,37
2022-10-19T06:05:50.924Z,41
2022-10-19T06:07:34.630Z,43
2022-10-19T06:09:18.338Z,52
2022-10-19T06:11:02.041Z,53
2022-10-19T06:12:45.744Z,54
2022-10-19T06:14:29.170Z,62
2022-10-19T06:16:12.845Z,64
2022-10-19T06:17:56.551Z,68
2022-10-19T06:19:40.233Z,78
2022-10-19T06:21:23.941Z,94
2022-10-19T06:23:07.650Z,102
2022-10-19T06:24:51.348Z,98
2022-10-19T06:26:35.057Z,96
2022-10-19T06:28:18.746Z,100
2022-10-19T06:30:02.459Z,113
2022-10-19T06:31:46.157Z,119
2022-10-19T06:33:29.878Z,117
2022-10-19T06:35:13.559Z,113
2022-10-19T06:36:57.263Z,113
2022-10-19T06:38:40.972Z,109
2022-10-19T06:40:24.673Z,117
2022-10-19T06:42:08.367Z,127
2022-10-19T06:43:52.074Z,137
2022-10-19T06:45:35.778Z,142
2022-10-19T06:47:19.579Z,160
2022-10-19T06:49:03.261Z,164
2022-10-19T06:52:30.587Z,156
2022-10-19T06:54:14.289Z,147
2022-10-19T06:55:57.986Z,151
2022-10-19T06:57:41.687Z,152
2022-10-19T06:59:25.540Z,170
2022-10-19T07:01:09.094Z,174
2022-10-19T07:02:52.921Z,188
2022-10-19T07:04:36.646Z,201
2022-10-19T07:06:20.205Z,227
2022-10-19T07:08:03.908Z,234
2022-10-19T07:09:47.699Z,227
2022-10-19T07:11:31.390Z,229
2022-10-19T07:13:15.014Z,252
2022-10-19T07:14:58.726Z,246
2022-10-19T07:16:42.527Z,245
2022-10-19T07:18:26.110Z,232
2022-10-19T07:20:09.821Z,249
2022-10-19T07:21:53.521Z,258
2022-10-19T07:23:37.231Z,254
2022-10-19T07:25:20.931Z,266
2022-10-19T07:27:04.634Z,304
2022-10-19T07:28:48.336Z,308
2022-10-19T07:30:32.046Z,308
2022-10-19T07:32:15.734Z,321
2022-10-19T07:33:59.446Z,339
2022-10-19T07:35:43.148Z,347
2022-10-19T07:37:26.843Z,347
2022-10-19T07:39:10.545Z,327
2022-10-19T07:40:54.249Z,285
2022-10-19T07:42:37.956Z,344
2022-10-19T07:44:21.658Z,373
2022-10-19T07:46:05.357Z,408
2022-10-19T07:47:49.063Z,431
2022-10-19T07:49:32.774Z,433
2022-10-19T07:51:16.468Z,429
2022-10-19T07:53:00.175Z,439
2022-10-19T07:54:43.885Z,448
2022-10-19T07:56:27.584Z,436
2022-10-19T07:58:11.291Z,462
2022-10-19T07:59:55.025Z,463
2022-10-19T08:01:38.693Z,481
2022-10-19T08:03:22.393Z,489
2022-10-19T08:05:06.088Z,498
2022-10-19T08:06:49.813Z,506
2022-10-19T08:08:33.489Z,469
2022-10-19T08:10:17.197Z,589
2022-10-19T08:12:00.905Z,650
2022-10-19T08:13:44.594Z,649
2022-10-19T08:15:28.332Z,538
2022-10-19T08:17:12.012Z,528
2022-10-19T08:18:55.705Z,531
2022-10-19T08:20:39.411Z,641
2022-10-19T08:22:23.222Z,645
2022-10-19T08:24:06.936Z,646
2022-10-19T08:25:50.529Z,697
2022-10-19T08:27:34.218Z,688
2022-10-19T08:29:17.919Z,704
2022-10-19T08:31:01.631Z,728
2022-10-19T08:32:45.322Z,741
2022-10-19T08:34:29.027Z,742
2022-10-19T08:36:12.743Z,742
2022-10-19T08:37:56.430Z,741
2022-10-19T08:39:40.136Z,718
2022-10-19T08:41:23.832Z,589
2022-10-19T08:43:07.549Z,559
2022-10-19T08:44:51.243Z,505
2022-10-19T08:46:34.936Z,490
2022-10-19T08:48:18.682Z,501
2022-10-19T08:50:02.388Z,551
2022-10-19T08:51:46.047Z,655
2022-10-19T08:53:29.746Z,637
2022-10-19T08:55:13.442Z,679
2022-10-19T08:56:57.147Z,688
2022-10-19T08:58:40.890Z,658
2022-10-19T09:00:24.547Z,638
2022-10-19T09:02:08.250Z,687
2022-10-19T09:03:52.008Z,642
2022-10-19T09:05:35.661Z,556
2022-10-19T09:07:19.365Z,563
2022-10-19T09:09:03.066Z,550
2022-10-19T09:10:46.808Z,543
2022-10-19T09:12:30.570Z,580
2022-10-19T09:14:14.174Z,639
2022-10-19T09:15:57.878Z,619
2022-10-19T09:17:41.573Z,585
2022-10-19T09:19:25.278Z,598
2022-10-19T09:21:08.983Z,653
2022-10-19T09:22:52.682Z,713
2022-10-19T09:24:36.391Z,742
2022-10-19T09:26:20.188Z,742
2022-10-19T09:28:03.797Z,742
2022-10-19T09:29:47.496Z,741
2022-10-19T09:31:31.209Z,719
2022-10-19T09:33:14.907Z,702
2022-10-19T09:34:58.620Z,733
2022-10-19T09:36:42.310Z,742
2022-10-19T09:38:26.009Z,741
2022-10-19T09:40:09.706Z,742
2022-10-19T09:41:53.417Z,673
2022-10-19T09:43:37.118Z,578
2022-10-19T09:45:20.832Z,508
2022-10-19T09:47:04.523Z,524
2022-10-19T09:48:48.227Z,629
2022-10-19T09:50:31.930Z,623
2022-10-19T09:52:15.634Z,624
2022-10-19T09:53:59.326Z,586
2022-10-19T09:55:43.033Z,582
2022-10-19T09:57:26.737Z,585
2022-10-19T09:59:10.430Z,586
2022-10-19T10:00:54.146Z,540
2022-10-19T10:04:21.544Z,466
2022-10-19T10:06:05.254Z,484
2022-10-19T10:07:48.941Z,508
2022-10-19T10:09:32.647Z,535
2022-10-19T10:11:16.352Z,547
2022-10-19T10:13:00.055Z,621
2022-10-19T10:14:43.758Z,560
2022-10-19T10:16:27.454Z,543
2022-10-19T10:18:11.161Z,589
2022-10-19T10:19:54.861Z,634
2022-10-19T10:21:38.554Z,691
2022-10-19T10:23:22.265Z,741
2022-10-19T10:25:05.971Z,741
2022-10-19T10:26:49.688Z,741
2022-10-19T10:28:33.375Z,741
2022-10-19T10:30:17.123Z,742
2022-10-19T10:32:00.776Z,741
2022-10-19T10:33:44.479Z,741
2022-10-19T10:35:28.176Z,741
2022-10-19T10:37:11.881Z,741
2022-10-19T10:38:55.666Z,742
2022-10-19T10:40:39.288Z,742
2022-10-19T10:42:23.000Z,741
2022-10-19T10:44:06.689Z,741
2022-10-19T10:45:50.397Z,741
2022-10-19T10:47:34.111Z,741
2022-10-19T10:49:17.798Z,741
2022-10-19T10:51:01.559Z,742
2022-10-19T10:52:45.205Z,743
2022-10-19T10:54:28.904Z,730
2022-10-19T10:56:12.610Z,688
2022-10-19T10:57:56.308Z,702
2022-10-19T10:59:40.010Z,646
2022-10-19T11:01:23.721Z,672
2022-10-19T11:03:07.416Z,685
2022-10-19T11:04:51.156Z,680
2022-10-19T11:06:34.821Z,597
2022-10-19T11:08:18.525Z,584
2022-10-19T11:10:02.248Z,601
2022-10-19T11:11:46.004Z,621
2022-10-19T11:13:29.634Z,654
2022-10-19T11:15:13.335Z,660
2022-10-19T11:16:57.041Z,687
2022-10-19T11:18:40.872Z,718
2022-10-19T11:20:24.508Z,726
2022-10-19T11:22:08.153Z,735
2022-10-19T11:23:51.856Z,740
2022-10-19T11:25:35.549Z,741
2022-10-19T11:29:02.952Z,742
2022-10-19T11:30:46.685Z,742
2022-10-19T11:32:30.365Z,741
2022-10-19T11:34:14.067Z,742
2022-10-19T11:35:57.842Z,742
2022-10-19T11:37:41.592Z,739
2022-10-19T11:39:25.166Z,713
2022-10-19T11:41:08.877Z,657
2022-10-19T11:42:52.580Z,626
2022-10-19T11:44:36.280Z,633
2022-10-19T11:46:19.986Z,708
2022-10-19T11:48:03.684Z,742
2022-10-19T11:49:47.385Z,742
2022-10-19T11:51:31.082Z,718
2022-10-19T11:53:14.788Z,633
2022-10-19T11:54:58.488Z,635
2022-10-19T11:56:42.187Z,727
2022-10-19T11:58:25.895Z,742
2022-10-19T12:00:09.602Z,733
2022-10-19T12:01:53.357Z,742
2022-10-19T12:03:37.006Z,742
2022-10-19T12:05:20.724Z,743
2022-10-19T12:07:04.404Z,741
2022-10-19T12:08:48.115Z,742
2022-10-19T12:10:31.869Z,742
2022-10-19T12:12:15.514Z,742
2022-10-19T12:13:59.212Z,743
2022-10-19T12:15:42.917Z,742
2022-10-19T12:17:26.620Z,741
2022-10-19T12:19:10.314Z,741
2022-10-19T12:20:54.022Z,742
2022-10-19T12:22:37.726Z,732
2022-10-19T12:24:21.427Z,741
2022-10-19T12:26:05.129Z,742
2022-10-19T12:27:48.830Z,742
2022-10-19T12:29:32.530Z,741
2022-10-19T12:31:16.237Z,741
2022-10-19T12:32:59.933Z,742
2022-10-19T12:34:43.636Z,742
2022-10-19T12:36:27.340Z,740
2022-10-19T12:38:11.044Z,741
2022-10-19T12:39:54.752Z,742
2022-10-19T12:41:38.445Z,742
2022-10-19T12:43:22.155Z,742
2022-10-19T12:45:05.857Z,741
2022-10-19T12:46:49.551Z,742
2022-10-19T12:48:33.263Z,742
2022-10-19T12:50:16.960Z,740
2022-10-19T12:52:00.663Z,741
2022-10-19T12:53:44.369Z,741
2022-10-19T12:55:28.082Z,742
2022-10-19T12:57:11.799Z,742
2022-10-19T12:58:55.471Z,732
2022-10-19T13:00:39.337Z,725
2022-10-19T13:02:23.037Z,684
2022-10-19T13:04:06.758Z,741
2022-10-19T13:05:50.280Z,704
2022-10-19T13:07:34.121Z,647
2022-10-19T13:09:17.825Z,709
2022-10-19T13:11:01.582Z,654
2022-10-19T13:12:45.237Z,595
2022-10-19T13:14:28.936Z,606
2022-10-19T13:16:12.635Z,588
2022-10-19T13:17:56.325Z,528
2022-10-19T13:19:39.937Z,535
2022-10-19T13:21:23.609Z,472
2022-10-19T13:23:07.298Z,534
2022-10-19T13:24:51.063Z,576
2022-10-19T13:26:34.711Z,614
2022-10-19T13:28:18.411Z,655
2022-10-19T13:30:02.130Z,651
2022-10-19T13:31:45.815Z,625
2022-10-19T13:33:29.514Z,647
2022-10-19T13:35:13.215Z,689
2022-10-19T13:38:40.620Z,700
2022-10-19T13:40:24.325Z,694
2022-10-19T13:42:08.052Z,688
2022-10-19T13:43:51.728Z,678
2022-10-19T13:45:35.435Z,637
2022-10-19T13:47:19.133Z,653
2022-10-19T13:49:02.838Z,677
2022-10-19T13:50:46.532Z,715
2022-10-19T13:52:30.242Z,743
2022-10-19T13:54:13.934Z,742
2022-10-19T13:55:57.644Z,742
2022-10-19T13:57:41.357Z,742
2022-10-19T13:59:25.045Z,742
2022-10-19T14:01:08.746Z,742
2022-10-19T14:02:52.466Z,732
2022-10-19T14:04:36.153Z,741
2022-10-19T14:06:19.865Z,742
2022-10-19T14:08:03.561Z,743
2022-10-19T14:09:47.261Z,742
2022-10-19T14:11:30.968Z,742
2022-10-19T14:13:14.667Z,742
2022-10-19T14:14:58.370Z,743
2022-10-19T14:16:42.091Z,742
2022-10-19T14:18:25.801Z,742
2022-10-19T14:20:09.481Z,742
2022-10-19T14:21:53.171Z,742
2022-10-19T14:23:36.878Z,742
2022-10-19T14:25:20.590Z,740
2022-10-19T14:27:04.288Z,742
2022-10-19T14:28:47.988Z,742
2022-10-19T14:30:31.683Z,741
2022-10-19T14:32:15.393Z,741
2022-10-19T14:33:59.105Z,742
2022-10-19T14:35:42.794Z,742
2022-10-19T14:37:26.523Z,743
2022-10-19T14:40:53.906Z,742
2022-10-19T14:42:37.611Z,742
2022-10-19T14:44:21.310Z,742
2022-10-19T14:46:05.017Z,742
2022-10-19T14:47:48.721Z,741
2022-10-19T14:49:32.435Z,742
2022-10-19T14:51:16.124Z,742
2022-10-19T14:52:59.828Z,740
2022-10-19T14:54:43.527Z,741
2022-10-19T14:56:27.231Z,742
2022-10-19T14:58:10.936Z,743
2022-10-19T14:59:54.636Z,742
2022-10-19T15:01:38.338Z,741
2022-10-19T15:03:22.055Z,743
2022-10-19T15:05:05.738Z,743
2022-10-19T15:06:49.443Z,742
2022-10-19T15:08:33.146Z,742
2022-10-19T15:10:16.849Z,743
2022-10-19T15:12:00.555Z,742
2022-10-19T15:13:44.253Z,742
2022-10-19T15:15:27.956Z,740
2022-10-19T15:17:11.676Z,742
2022-10-19T15:18:55.393Z,743
2022-10-19T15:20:39.081Z,742
2022-10-19T15:22:22.791Z,741
2022-10-19T15:24:06.505Z,741
2022-10-19T15:25:50.179Z,743
2022-10-19T15:27:33.873Z,742
2022-10-19T15:29:17.571Z,742
2022-10-19T15:31:01.278Z,741
2022-10-19T15:32:44.983Z,743
2022-10-19T15:34:28.679Z,743
2022-10-19T15:36:12.408Z,742
2022-10-19T15:37:56.091Z,740
2022-10-19T15:39:39.815Z,742
2022-10-19T15:41:23.501Z,743
2022-10-19T15:43:07.194Z,742
2022-10-19T15:44:50.906Z,721
2022-10-19T15:46:34.605Z,612
2022-10-19T15:48:18.298Z,552
2022-10-19T15:50:02.010Z,509
2022-10-19T15:51:45.703Z,455
2022-10-19T15:53:29.415Z,408
2022-10-19T15:55:13.117Z,384
2022-10-19T15:56:56.809Z,357
2022-10-19T15:58:40.516Z,329
2022-10-19T16:00:24.219Z,292
2022-10-19T16:02:07.922Z,275
2022-10-19T16:03:51.629Z,282
2022-10-19T16:05:35.327Z,295
2022-10-19T16:07:19.030Z,296
2022-10-19T16:09:02.738Z,284
2022-10-19T16:10:46.438Z,263
2022-10-19T16:12:30.145Z,240
2022-10-19T16:14:13.837Z,214
2022-10-19T16:15:57.550Z,182
2022-10-19T16:17:41.251Z,151
2022-10-19T16:19:24.947Z,120
2022-10-19T16:21:08.651Z,90
2022-10-19T16:22:52.351Z,64
2022-10-19T16:24:36.054Z,47
2022-10-19T16:26:19.772Z,40
2022-10-19T16:28:03.462Z,35
2022-10-19T16:29:47.164Z,32
2022-10-19T16:31:30.871Z,27
2022-10-19T16:33:14.609Z,24
2022-10-19T16:34:58.292Z,21
2022-10-19T16:36:41.980Z,19
2022-10-19T16:38:25.672Z,16
2022-10-19T16:40:09.382Z,13
2022-10-19T16:41:53.079Z,13
2022-10-19T16:43:36.783Z,10
2022-10-19T16:45:20.493Z,9
2022-10-19T16:47:04.202Z,8
2022-10-19T16:48:47.899Z,6
2022-10-19T16:50:31.600Z,5
2022-10-19T16:52:15.301Z,4
2022-10-19T16:53:59.010Z,4
2022-10-19T16:55:42.717Z,3
2022-10-19T16:57:26.412Z,10
2022-10-19T16:59:10.113Z,10
2022-10-19T17:00:53.832Z,10
2022-10-19T17:02:37.528Z,9
2022-10-19T17:04:21.217Z,9
2022-10-19T17:06:04.929Z,9
2022-10-19T17:07:48.636Z,10
2022-10-19T17:09:32.346Z,9
2022-10-19T17:11:16.041Z,9
2022-10-19T17:12:59.731Z,9
2022-10-19T17:14:43.442Z,9
2022-10-19T17:16:27.147Z,9
2022-10-19T17:18:10.844Z,8
2022-10-19T17:19:54.559Z,9
2022-10-19T17:21:38.256Z,9
2022-10-19T17:23:21.951Z,2
2022-10-19T17:25:05.718Z,2
2022-10-19T17:26:49.369Z,2
2022-10-19T17:28:33.080Z,1
2022-10-19T17:30:16.758Z,2
2022-10-19T17:32:00.460Z,3
2022-10-19T17:33:44.160Z,2
2022-10-19T17:35:27.863Z,2
2022-10-19T17:37:11.568Z,0
2022-10-19T17:38:55.272Z,2
2022-10-19T17:40:38.996Z,2
2022-10-19T17:42:22.684Z,2
2022-10-19T17:44:06.383Z,2
2022-10-19T17:45:50.076Z,3
2022-10-19T17:47:33.786Z,3
2022-10-19T17:49:17.491Z,2
2022-10-19T17:51:01.192Z,2
2022-10-19T17:52:44.896Z,2
2022-10-19T17:54:28.590Z,1
2022-10-19T17:56:12.312Z,2
2022-10-19T17:57:56.003Z,2
2022-10-19T17:59:39.701Z,2
2022-10-19T18:01:23.409Z,5
2022-10-19T18:03:07.106Z,5
2022-10-19T18:04:50.807Z,2
2022-10-19T18:06:34.558Z,3
2022-10-19T18:08:18.211Z,4
2022-10-19T18:10:01.997Z,5
2022-10-19T18:11:45.623Z,4
2022-10-19T18:13:29.322Z,5
2022-10-19T18:15:13.040Z,4
2022-10-19T18:16:56.729Z,4
2022-10-19T18:18:40.431Z,5
2022-10-19T18:20:24.137Z,3
2022-10-19T18:22:07.837Z,4
2022-10-19T18:23:51.533Z,4
2022-10-19T18:25:35.240Z,5
2022-10-19T18:27:18.969Z,11
2022-10-19T18:29:02.804Z,11
2022-10-19T18:30:46.360Z,11
2022-10-19T18:32:30.055Z,11
2022-10-19T18:34:13.756Z,11
2022-10-19T18:35:57.455Z,11
2022-10-19T18:37:41.162Z,11
2022-10-19T18:39:24.862Z,11
2022-10-19T18:41:08.571Z,11
2022-10-19T18:42:52.270Z,11
2022-10-19T18:44:35.984Z,11
2022-10-19T18:46:19.670Z,11
2022-10-19T18:48:03.376Z,11
2022-10-19T18:49:47.069Z,12
2022-10-19T18:51:30.778Z,11
2022-10-19T18:53:14.480Z,3
2022-10-19T18:54:58.180Z,2
2022-10-19T18:56:41.885Z,1
2022-10-19T18:58:25.586Z,2
2022-10-19T19:00:09.328Z,3
2022-10-19T19:01:53.006Z,3
2022-10-19T19:03:36.688Z,9
2022-10-19T19:05:20.417Z,9
2022-10-19T19:07:04.099Z,9
2022-10-19T19:08:47.806Z,8
2022-10-19T19:10:31.514Z,9
2022-10-19T19:12:15.205Z,8
2022-10-19T19:13:58.926Z,8
2022-10-19T19:15:42.617Z,2
2022-10-19T19:17:26.312Z,2
2022-10-19T19:19:10.057Z,2
2022-10-19T19:20:53.717Z,3
2022-10-19T19:22:37.414Z,2
2022-10-19T19:24:21.171Z,2
2022-10-19T19:26:04.825Z,2
2022-10-19T19:27:48.617Z,3
2022-10-19T19:29:32.230Z,2
2022-10-19T19:31:15.929Z,2
2022-10-19T19:32:59.639Z,2
2022-10-19T19:34:43.329Z,2
2022-10-19T19:36:27.040Z,1
2022-10-19T19:38:10.738Z,3
2022-10-19T19:39:54.464Z,2
2022-10-19T19:41:38.147Z,2
2022-10-19T19:43:21.845Z,2
2022-10-19T19:45:05.552Z,2
2022-10-19T19:46:49.273Z,3
2022-10-19T19:48:32.952Z,2
2022-10-19T19:50:16.660Z,2
2022-10-19T19:52:00.356Z,9
2022-10-19T19:53:44.056Z,9
2022-10-19T19:55:27.768Z,8
2022-10-19T19:57:11.467Z,9
2022-10-19T19:58:55.168Z,2
2022-10-19T20:00:38.875Z,1
2022-10-19T20:02:22.569Z,2
2022-10-19T20:04:06.276Z,3
2022-10-19T20:05:49.975Z,2
2022-10-19T20:07:33.675Z,2
2022-10-19T20:09:17.395Z,2
2022-10-19T20:11:01.079Z,3
2022-10-19T20:12:44.787Z,2
2022-10-19T20:14:28.488Z,3
2022-10-19T20:16:12.195Z,2
2022-10-19T20:17:55.895Z,2
2022-10-19T20:19:39.596Z,2
2022-10-19T20:21:23.297Z,1
2022-10-19T20:23:07.009Z,3
2022-10-19T20:24:50.695Z,2
2022-10-19T20:26:34.436Z,2
2022-10-19T20:28:18.103Z,2
2022-10-19T20:30:01.898Z,7
2022-10-19T20:31:45.513Z,8
2022-10-19T20:33:29.212Z,8
2022-10-19T20:35:12.931Z,8
2022-10-19T20:36:56.628Z,8
2022-10-19T20:38:40.525Z,2
2022-10-19T20:40:24.028Z,2
2022-10-19T20:42:07.727Z,1
2022-10-19T20:43:51.428Z,1
2022-10-19T20:45:35.131Z,1
2022-10-19T20:47:18.829Z,2
2022-10-19T20:49:02.540Z,1
2022-10-19T20:50:46.245Z,2
2022-10-19T20:52:30.004Z,1
2022-10-19T20:54:13.642Z,1
2022-10-19T20:55:57.338Z,1
2022-10-19T20:57:41.046Z,2
2022-10-19T20:59:24.754Z,1
2022-10-19T21:01:08.445Z,1
2022-10-19T21:02:52.147Z,2
2022-10-19T21:04:35.854Z,2
2022-10-19T21:06:19.555Z,2
2022-10-19T21:08:03.292Z,2
2022-10-19T21:09:46.957Z,1
2022-10-19T21:11:30.668Z,2
2022-10-19T21:13:14.441Z,1
2022-10-19T21:14:58.096Z,2
2022-10-19T21:16:41.786Z,2
2022-10-19T21:20:09.177Z,1
2022-10-19T21:21:52.879Z,1
2022-10-19T21:23:36.585Z,1
2022-10-19T21:25:20.310Z,2
2022-10-19T21:27:03.983Z,1
2022-10-19T21:28:47.682Z,1
2022-10-19T21:30:31.388Z,8
2022-10-19T21:32:15.119Z,7
2022-10-19T21:33:58.792Z,8
2022-10-19T21:35:42.503Z,7
2022-10-19T21:37:26.206Z,8
2022-10-19T21:39:09.895Z,1
2022-10-19T21:40:53.603Z,2
2022-10-19T21:42:37.330Z,2
2022-10-19T21:44:21.033Z,1
2022-10-19T21:46:04.715Z,1
2022-10-19T21:47:48.412Z,2
2022-10-19T21:49:32.116Z,1
2022-10-19T21:51:15.817Z,2
2022-10-19T21:52:59.522Z,1
2022-10-19T21:54:43.221Z,1
2022-10-19T21:56:26.927Z,1
2022-10-19T21:58:10.630Z,1
2022-10-19T21:59:54.364Z,2
2022-10-19T22:01:38.186Z,1
2022-10-19T22:03:21.746Z,8
2022-10-19T22:05:05.441Z,8
2022-10-19T22:06:49.152Z,8
2022-10-19T22:08:32.837Z,8
2022-10-19T22:10:16.578Z,8
2022-10-19T22:12:00.261Z,1
2022-10-19T22:13:43.947Z,1
2022-10-19T22:15:27.662Z,1
2022-10-19T22:17:11.363Z,1
2022-10-19T22:18:55.061Z,1
2022-10-19T22:20:38.769Z,1
2022-10-19T22:22:22.466Z,1
2022-10-19T22:24:06.199Z,1
2022-10-19T22:25:49.878Z,1
2022-10-19T22:27:33.582Z,2
2022-10-19T22:29:17.277Z,2
2022-10-19T22:31:00.970Z,1
2022-10-19T22:32:44.675Z,1
2022-10-19T22:34:28.401Z,1
2022-10-19T22:36:12.076Z,1
2022-10-19T22:37:55.783Z,2
2022-10-19T22:39:39.493Z,1
2022-10-19T22:41:23.182Z,1
2022-10-19T22:43:06.894Z,2
2022-10-19T22:44:50.591Z,1
2022-10-19T22:46:34.298Z,1
2022-10-19T22:48:17.999Z,1
2022-10-19T22:50:01.706Z,1
2022-10-19T22:51:45.401Z,1
2022-10-19T22:53:29.103Z,1
2022-10-19T22:55:12.808Z,8
2022-10-19T22:56:56.530Z,8
2022-10-19T22:58:40.206Z,8
2022-10-19T23:00:23.919Z,1
2022-10-19T23:02:07.621Z,1
2022-10-19T23:03:51.327Z,1
2022-10-19T23:05:35.025Z,1
2022-10-19T23:07:18.728Z,2
2022-10-19T23:09:02.440Z,2
2022-10-19T23:10:46.133Z,1
2022-10-19T23:12:29.822Z,1
2022-10-19T23:14:13.528Z,1
2022-10-19T23:15:57.246Z,1
2022-10-19T23:17:40.932Z,1
2022-10-19T23:19:24.641Z,1
2022-10-19T23:21:08.334Z,1
2022-10-19T23:22:52.040Z,1
2022-10-19T23:24:35.745Z,2
2022-10-19T23:26:19.446Z,1
2022-10-19T23:28:03.178Z,1
2022-10-19T23:29:46.850Z,0
2022-10-19T23:31:30.557Z,1
2022-10-19T23:33:14.257Z,2
2022-10-19T23:34:57.958Z,1
2022-10-19T23:36:41.694Z,1
2022-10-19T23:38:25.356Z,1
2022-10-19T23:40:09.061Z,1
2022-10-19T23:41:52.773Z,1
2022-10-19T23:43:36.470Z,1
2022-10-19T23:45:20.178Z,1
2022-10-19T23:47:03.876Z,2
2022-10-19T23:48:47.577Z,1
2022-10-19T23:50:31.281Z,0
2022-10-19T23:52:15.006Z,1
2022-10-19T23:53:58.690Z,1
2022-10-19T23:55:42.397Z,1
2022-10-19T23:57:26.103Z,1
2022-10-19T23:59:09.798Z,1
